This is the latest recevied weather packets stored in our database for station/object W2SRH. If no packets are shown the sender has not sent any weather packets the latest 10 day(s).
| Time | Temp. | Humidity | Pressure | Rain* | Wind** | Luminosity | Snow |
|---|---|---|---|---|---|---|---|
| 1777936143 | 22.22° C | 30% | 1001 hPa | 0 mm | 1.79 m/s, 273° | - | - |
| 1777935543 | 22.22° C | 30% | 1001.1 hPa | 0 mm | 0 m/s | - | - |
| 1777934945 | 22.22° C | 30% | 1001 hPa | 0 mm | 0.45 m/s, 221° | - | - |
| 1777934343 | 22.78° C | 29% | 1001 hPa | 0 mm | 0.89 m/s, 237° | - | - |
| 1777933744 | 22.22° C | 29% | 1001.1 hPa | 0 mm | 1.34 m/s, 277° | - | - |
| 1777933143 | 22.78° C | 29% | 1001.1 hPa | 0 mm | 0.89 m/s, 224° | - | - |
| 1777932545 | 22.78° C | 29% | 1001.1 hPa | 0 mm | 1.34 m/s, 276° | - | - |
| 1777931946 | 23.33° C | 28% | 1001.2 hPa | 0 mm | 1.79 m/s, 248° | - | - |
| 1777931345 | 23.33° C | 28% | 1001.3 hPa | 0 mm | 0.45 m/s, 212° | - | - |
| 1777930745 | 22.78° C | 28% | 1001.3 hPa | 0 mm | 0.45 m/s, 212° | - | - |
| 1777930654 | 23.33° C | 28% | 1001.3 hPa | 0 mm | 0.45 m/s, 252° | - | - |
| 1777930146 | 23.33° C | 28% | 1001.4 hPa | 0 mm | 1.34 m/s, 287° | - | - |
| 1777929545 | 23.33° C | 28% | 1001.3 hPa | 0 mm | 0.45 m/s, 252° | - | - |
| 1777928945 | 22.78° C | 28% | 1001.4 hPa | 0 mm | 1.79 m/s, 266° | - | - |
| 1777928730 | 22.78° C | 28% | 1001.5 hPa | 0 mm | 0.89 m/s, 247° | - | - |
| 1777928345 | 22.78° C | 27% | 1001.4 hPa | 0 mm | 1.79 m/s, 267° | - | - |
| 1777927778 | 23.33° C | 27% | 1001.4 hPa | 0 mm | 1.34 m/s, 258° | - | - |
| 1777927745 | 23.33° C | 27% | 1001.4 hPa | 0 mm | 1.34 m/s, 258° | - | - |
| 1777927144 | 22.78° C | 28% | 1001.5 hPa | 0 mm | 0.89 m/s, 247° | - | - |
| 1777926544 | 23.33° C | 27% | 1001.4 hPa | 0 mm | 1.34 m/s, 267° | - | - |
| 1777925943 | 22.78° C | 27% | 1001.3 hPa | 0 mm | 0.89 m/s, 176° | - | - |
| 1777925345 | 22.78° C | 27% | 1001.6 hPa | 0 mm | 1.34 m/s, 295° | - | - |
| 1777924745 | 22.78° C | 27% | 1001.6 hPa | 0 mm | 1.79 m/s, 275° | - | - |
| 1777924144 | 22.22° C | 27% | 1001.6 hPa | 0 mm | 2.24 m/s, 274° | - | - |
| 1777923543 | 22.78° C | 27% | 1001.7 hPa | 0 mm | 1.34 m/s, 286° | - | - |
* Rain latest hour (hover to see other rain measurements)
** Current wind speed in m/s (hover to see current wind gust speed)